Time;durP1;ratioP1;P1;durP2;ratioP2;P2;SDS_P1;SDS_P2;PMS_P1;PMS_P2;Temp;Humidity;BMP_temperature;BMP_pressure;BME280_temperature;BME280_humidity;BME280_pressure;Samples;Min_cycle;Max_cycle;Signal;HPM_P1;HPM_P2
2022/02/15 00:00:49;;;;;;;8.32;4.90;;;10.00;99.90;;;10.39;78.34;100493.59;5116422;28;20050;-67
2022/02/15 00:03:17;;;;;;;8.45;4.30;;;10.10;99.90;;;10.36;77.97;100487.44;5116230;28;20043;-66
2022/02/15 00:05:46;;;;;;;9.75;4.63;;;10.00;99.90;;;10.33;78.13;100495.41;5116161;28;20040;-64
2022/02/15 00:08:14;;;;;;;14.50;5.00;;;10.00;99.90;;;10.28;78.08;100502.53;5116313;28;20580;-65
2022/02/15 00:10:45;;;;;;;10.48;5.20;;;10.00;99.90;;;10.23;78.25;100496.38;5116071;28;20043;-63
2022/02/15 00:13:13;;;;;;;7.88;4.97;;;9.90;99.90;;;10.17;78.46;100502.59;5116072;28;20504;-63
2022/02/15 00:15:43;;;;;;;10.50;4.85;;;9.90;99.90;;;10.22;78.31;100502.56;5115138;28;20042;-65
2022/02/15 00:18:12;;;;;;;6.18;4.50;;;9.90;99.90;;;10.20;78.35;100504.34;5116015;28;20381;-64
2022/02/15 00:20:41;;;;;;;10.68;4.85;;;9.90;99.90;;;10.09;78.84;100507.03;5116433;27;20063;-63
2022/02/15 00:23:10;;;;;;;9.13;5.15;;;9.80;99.90;;;10.15;78.62;100500.84;5116332;28;20093;-64
2022/02/15 00:25:38;;;;;;;9.52;5.28;;;9.80;99.90;;;10.18;78.28;100500.84;5116070;28;20040;-63
2022/02/15 00:28:07;;;;;;;7.40;4.68;;;9.90;99.90;;;10.18;78.36;100507.00;5115646;28;20036;-63
2022/02/15 00:30:35;;;;;;;9.75;4.80;;;9.90;99.90;;;10.24;78.35;100521.94;5115661;28;20123;-63
2022/02/15 00:33:05;;;;;;;9.43;4.97;;;9.80;99.90;;;10.05;78.26;100484.19;5115631;28;20552;-63
2022/02/15 00:35:34;;;;;;;8.87;5.50;;;9.80;99.90;;;10.13;78.28;100500.00;5115900;28;20046;-63
2022/02/15 00:38:02;;;;;;;10.45;4.70;;;9.90;99.90;;;10.23;78.04;100528.09;5115576;28;20899;-63
2022/02/15 00:40:31;;;;;;;11.30;4.97;;;9.90;99.90;;;10.19;77.72;100524.63;5131695;27;20088;-63
2022/02/15 00:43:01;;;;;;;9.93;5.05;;;9.80;99.90;;;10.19;78.19;100527.25;5115786;27;20047;-64
2022/02/15 00:45:30;;;;;;;10.13;5.15;;;9.80;99.90;;;10.18;77.64;100532.56;5115634;28;20120;-63
2022/02/15 00:47:59;;;;;;;9.55;5.25;;;9.80;99.90;;;10.11;77.85;100528.19;5115686;28;20036;-64
2022/02/15 00:50:29;;;;;;;9.02;5.13;;;9.80;99.90;;;9.76;77.72;100486.16;5131495;27;20472;-64
2022/02/15 00:52:57;;;;;;;9.52;4.80;;;9.70;99.90;;;9.98;77.88;100530.94;5115634;28;20051;-65
2022/02/15 00:55:26;;;;;;;10.10;4.95;;;9.60;99.90;;;9.72;78.41;100501.16;5131340;27;20507;-63
2022/02/15 00:57:55;;;;;;;11.90;4.60;;;9.60;99.90;;;9.96;78.60;100539.75;5114496;28;20044;-63
2022/02/15 01:00:23;;;;;;;12.07;4.78;;;9.60;99.90;;;9.92;78.66;100541.53;5115403;28;20067;-64
2022/02/15 01:02:52;;;;;;;15.48;5.53;;;9.60;99.90;;;9.19;79.06;100410.91;5131155;27;20043;-63
2022/02/15 01:05:20;;;;;;;12.02;4.97;;;9.50;99.90;;;9.92;79.68;100544.19;5114984;27;20446;-63
2022/02/15 01:07:50;;;;;;;10.90;4.68;;;9.50;99.90;;;9.91;79.78;100530.97;5114882;28;20104;-65
2022/02/15 01:10:20;;;;;;;7.53;4.30;;;9.50;99.90;;;9.77;79.76;100514.34;5130817;27;20055;-63
2022/02/15 01:12:50;;;;;;;10.48;5.35;;;9.60;99.90;;;9.86;80.04;100541.56;5113908;28;20401;-64
2022/02/15 01:15:19;;;;;;;8.32;4.95;;;9.60;99.90;;;9.91;80.34;100541.56;5115139;28;20051;-63
2022/02/15 01:17:48;;;;;;;9.38;5.15;;;9.50;99.90;;;9.96;80.43;100567.03;5114962;28;20039;-63
2022/02/15 01:20:16;;;;;;;9.55;5.43;;;9.60;99.90;;;9.97;80.89;100544.13;5114928;28;20081;-63
2022/02/15 01:22:45;;;;;;;12.82;5.50;;;9.60;99.90;;;9.98;81.08;100551.19;5114798;28;20115;-64
2022/02/15 01:25:15;;;;;;;9.90;5.22;;;9.60;99.90;;;9.61;80.94;100492.44;5130785;27;20164;-63
2022/02/15 01:27:43;;;;;;;11.25;5.93;;;9.60;99.90;;;9.88;81.55;100550.38;5114837;28;20122;-64
2022/02/15 01:30:12;;;;;;;14.25;5.50;;;9.50;99.90;;;9.88;81.60;100587.34;5113498;28;20043;-64
2022/02/15 01:32:41;;;;;;;14.23;5.95;;;9.60;99.90;;;9.89;82.23;100559.19;5130631;27;20044;-64
2022/02/15 01:35:10;;;;;;;11.55;6.00;;;9.50;99.90;;;9.84;82.72;100585.59;5113397;28;20142;-64
2022/02/15 01:37:39;;;;;;;11.15;5.53;;;9.50;99.90;;;9.77;82.32;100564.53;5113334;28;20054;-63
2022/02/15 01:40:09;;;;;;;12.60;5.78;;;9.40;99.90;;;9.85;83.12;100566.22;5113155;28;20039;-64
2022/02/15 01:42:39;;;;;;;;;;;9.50;99.90;;;9.90;83.18;100577.66;5115093;28;20043;-64
2022/02/15 01:45:12;;;;;;;10.77;4.97;;;9.50;99.90;;;9.90;83.00;100569.72;5114171;28;19920;-64
2022/02/15 01:47:41;;;;;;;10.43;4.90;;;9.50;99.90;;;9.65;82.91;100536.44;5113399;28;20082;-63
2022/02/15 01:50:10;;;;;;;14.23;6.15;;;9.60;99.90;;;9.88;82.93;100570.63;5114127;28;20086;-63
2022/02/15 01:52:39;;;;;;;8.70;5.22;;;9.60;99.90;;;9.76;82.77;100545.16;5114421;28;20047;-63
2022/02/15 01:55:13;;;;;;;15.52;5.82;;;9.60;99.90;;;9.92;82.57;100575.88;5129888;27;20126;-63
2022/02/15 01:57:44;;;;;;;13.35;5.65;;;9.60;99.90;;;9.93;83.04;100571.44;5129994;27;20101;-63
2022/02/15 02:00:20;;;;;;;13.00;5.15;;;9.50;99.90;;;9.86;82.53;100548.63;5113062;28;20092;-63
2022/02/15 02:02:55;;;;;;;13.75;5.57;;;9.60;99.90;;;9.99;82.59;100576.69;5114014;28;20065;-63
2022/02/15 02:08:13;;;;;;;13.15;6.13;;;9.70;99.90;;;10.02;82.91;100568.75;5129950;27;20043;-64
2022/02/15 02:10:46;;;;;;;16.48;6.20;;;9.70;99.90;;;10.06;82.92;100569.63;5114147;28;20036;-63
2022/02/15 02:13:35;;;;;;;14.82;5.78;;;9.70;99.90;;;10.02;82.71;100568.75;5114016;28;20071;-64
2022/02/15 02:16:07;;;;;;;13.65;6.53;;;9.70;99.90;;;10.08;82.49;100579.28;5112785;28;20048;-63
2022/02/15 02:18:46;;;;;;;13.10;6.47;;;9.70;99.90;;;10.14;82.75;100583.69;5112795;28;20044;-63
2022/02/15 02:21:17;;;;;;;13.95;6.65;;;9.70;99.90;;;10.07;82.69;100580.16;5147235;27;20096;-63
2022/02/15 02:23:46;;;;;;;15.27;6.50;;;9.70;99.90;;;10.19;82.86;100572.19;5129998;27;20120;-64
2022/02/15 02:26:20;;;;;;;14.45;6.28;;;9.80;99.90;;;9.92;82.47;100533.59;5129488;27;20286;-64
2022/02/15 02:28:49;;;;;;;12.38;6.22;;;9.80;99.90;;;10.22;82.83;100587.16;5129763;27;20493;-63
2022/02/15 02:31:18;;;;;;;13.45;6.85;;;9.80;99.90;;;10.27;82.57;100582.69;5112596;28;20031;-63
2022/02/15 02:33:59;;;;;;;12.13;7.72;;;9.90;99.90;;;10.10;82.50;100574.91;5112275;28;20054;-64
2022/02/15 02:36:29;;;;;;;19.95;9.73;;;9.90;99.90;;;10.10;82.33;100588.13;5129661;27;20043;-63
2022/02/15 02:38:58;;;;;;;18.60;9.25;;;9.80;99.90;;;9.65;82.22;100510.03;5129682;28;20058;-63
2022/02/15 02:41:27;;;;;;;21.00;9.23;;;9.80;99.90;;;9.95;82.40;100573.19;5129557;28;20128;-64
2022/02/15 02:43:55;;;;;;;19.70;8.98;;;9.70;99.90;;;10.02;82.40;100587.25;5112428;28;20130;-63
2022/02/15 02:46:24;;;;;;;17.70;8.90;;;9.70;99.90;;;9.99;82.11;100584.63;5129537;28;20058;-63
2022/02/15 02:48:53;;;;;;;19.88;9.18;;;9.70;99.90;;;10.06;82.27;100590.75;5129354;28;20400;-63
2022/02/15 02:51:22;;;;;;;18.63;8.43;;;9.80;99.90;;;9.91;81.89;100575.91;5129416;28;20036;-63
2022/02/15 02:53:52;;;;;;;19.63;9.05;;;9.80;99.90;;;9.80;81.79;100582.97;5113536;28;20067;-64
2022/02/15 02:56:22;;;;;;;19.65;8.48;;;9.80;99.90;;;10.12;82.02;100586.34;5112379;28;20403;-63
2022/02/15 02:58:53;;;;;;;17.05;8.65;;;9.80;99.90;;;10.23;81.89;100599.47;5111874;28;20412;-63
2022/02/15 03:01:21;;;;;;;18.60;8.23;;;9.90;99.90;;;10.06;81.63;100577.53;5113665;28;20048;-64
2022/02/15 03:03:51;;;;;;;18.65;8.05;;;10.00;99.90;;;10.34;81.58;100592.31;5112413;28;20511;-65
2022/02/15 03:06:21;;;;;;;20.20;7.65;;;10.00;99.90;;;10.24;81.78;100601.22;5111797;28;20105;-65
2022/02/15 03:08:52;;;;;;;15.00;7.07;;;10.00;99.90;;;10.30;81.75;100607.34;5113245;28;20047;-63
2022/02/15 03:11:21;;;;;;;20.08;7.47;;;10.00;99.90;;;10.12;81.03;100569.59;5146487;27;20044;-63
2022/02/15 03:13:50;;;;;;;20.05;7.70;;;10.00;99.90;;;10.11;81.33;100581.03;5113341;28;20074;-63
2022/02/15 03:16:30;;;;;;;21.30;7.63;;;9.90;99.90;;;10.22;81.64;100603.00;5112234;28;20142;-64
2022/02/15 03:18:58;;;;;;;13.27;6.68;;;10.00;99.90;;;10.27;81.48;100619.69;5129493;28;20058;-63
2022/02/15 03:21:28;;;;;;;16.50;7.13;;;9.90;99.90;;;10.25;81.33;100624.13;5132781;27;20439;-63
2022/02/15 03:23:58;;;;;;;18.10;7.25;;;9.90;99.90;;;10.26;81.60;100631.19;5117055;28;20472;-63
2022/02/15 03:26:27;;;;;;;17.83;6.80;;;9.90;99.90;;;10.30;81.58;100631.13;5115936;28;20085;-63
2022/02/15 03:28:56;;;;;;;22.58;7.50;;;10.00;99.90;;;10.39;81.23;100646.06;5116873;28;20043;-63
2022/02/15 03:31:25;;;;;;;17.48;8.80;;;10.00;99.90;;;10.30;81.17;100632.91;5117126;28;20039;-64
2022/02/15 03:33:56;;;;;;;21.42;8.02;;;10.00;99.90;;;10.29;81.28;100642.59;5132979;27;20047;-63
2022/02/15 03:36:26;;;;;;;19.40;7.03;;;10.10;99.90;;;9.94;81.60;100618.13;5115697;28;20047;-63
2022/02/15 03:39:05;;;;;;;20.90;7.30;;;9.90;99.90;;;10.15;81.90;100649.72;5132894;27;20481;-63
2022/02/15 03:44:24;;;;;;;21.20;7.15;;;10.00;99.90;;;10.30;81.82;100669.91;5132818;27;20078;-64
2022/02/15 03:46:58;;;;;;;12.52;6.93;;;10.00;99.90;;;10.21;81.88;100656.75;5115683;28;20047;-65
2022/02/15 03:49:33;;;;;;;18.00;7.40;;;9.90;99.90;;;9.88;81.81;100612.88;5115529;28;20059;-63
2022/02/15 03:52:02;;;;;;;21.50;7.00;;;9.90;99.90;;;10.08;81.78;100657.69;5115872;28;20055;-63
2022/02/15 03:54:32;;;;;;;24.40;7.65;;;9.80;99.90;;;10.21;81.67;100677.88;5115525;28;20048;-65
2022/02/15 03:57:01;;;;;;;18.55;6.70;;;9.90;99.90;;;9.99;82.33;100674.44;5132655;27;20047;-65
2022/02/15 03:59:31;;;;;;;21.88;6.93;;;9.70;99.90;;;10.01;82.24;100670.91;5115145;28;20098;-65
2022/02/15 04:02:01;;;;;;;17.33;6.03;;;9.70;99.90;;;10.13;82.35;100679.69;5132588;27;20100;-67
2022/02/15 04:04:30;;;;;;;22.42;6.28;;;9.80;99.90;;;10.20;81.69;100690.22;5132473;27;20047;-65
2022/02/15 04:07:00;;;;;;;17.25;6.43;;;9.90;99.90;;;10.13;82.20;100685.88;5115300;28;20093;-64
2022/02/15 04:09:33;;;;;;;18.77;6.10;;;9.90;99.90;;;10.13;81.93;100682.34;5149523;27;20048;-65
2022/02/15 04:12:04;;;;;;;25.38;6.13;;;9.80;99.90;;;10.14;81.22;100687.63;5115278;28;20071;-64
2022/02/15 04:14:38;;;;;;;16.67;5.70;;;9.90;99.90;;;10.21;81.00;100691.09;5149486;27;20047;-65
2022/02/15 04:17:08;;;;;;;18.00;5.60;;;9.90;99.90;;;10.20;81.16;100690.22;5131994;27;20109;-65
2022/02/15 04:19:39;;;;;;;20.23;6.38;;;9.90;99.90;;;10.02;80.54;100648.03;5149638;27;20081;-64
2022/02/15 04:22:08;;;;;;;19.35;6.88;;;10.00;99.90;;;10.22;80.76;100698.16;5115163;28;20454;-66
2022/02/15 04:24:40;;;;;;;23.58;5.97;;;9.90;99.90;;;10.10;81.06;100698.22;5132095;27;20414;-65
2022/02/15 04:27:10;;;;;;;20.98;6.90;;;9.90;99.90;;;10.23;80.97;100710.47;5132006;27;20131;-65
2022/02/15 04:29:39;;;;;;;18.13;6.07;;;9.90;99.90;;;10.12;81.27;100712.31;5131840;27;20088;-67
2022/02/15 04:32:08;;;;;;;16.23;6.63;;;9.80;99.90;;;10.11;81.26;100714.06;5114555;27;20495;-65
2022/02/15 04:34:39;;;;;;;17.75;5.68;;;9.80;99.90;;;10.12;80.90;100723.75;5114760;28;20073;-65
2022/02/15 04:37:08;;;;;;;20.02;5.85;;;9.80;99.90;;;10.18;80.84;100717.56;5114627;28;20374;-64
2022/02/15 04:39:40;;;;;;;14.38;6.03;;;9.90;99.90;;;10.04;80.73;100714.97;5131810;27;20050;-65
2022/02/15 04:42:11;;;;;;;16.20;5.97;;;9.80;99.90;;;10.09;80.76;100720.19;5114549;28;20504;-64
2022/02/15 04:44:41;;;;;;;21.85;6.15;;;9.90;99.90;;;8.64;80.40;100468.31;5114449;28;20134;-64
2022/02/15 04:47:12;;;;;;;17.33;5.60;;;9.80;99.90;;;10.11;80.34;100736.97;5131981;27;20431;-64
2022/02/15 04:49:40;;;;;;;19.80;5.93;;;9.80;99.90;;;9.97;80.44;100736.97;5115460;28;20413;-64
2022/02/15 04:52:09;;;;;;;26.17;6.50;;;9.70;99.90;;;9.87;80.26;100736.16;5131399;27;20471;-65
2022/02/15 04:54:41;;;;;;;25.13;6.38;;;9.70;99.90;;;9.72;80.65;100703.63;5114318;28;20093;-64
2022/02/15 04:57:10;;;;;;;17.70;5.32;;;9.70;99.90;;;9.56;80.89;100697.50;5114383;28;20049;-65
2022/02/15 04:59:45;;;;;;;15.75;5.93;;;9.60;99.90;;;9.57;80.77;100701.94;5148538;27;20055;-64
2022/02/15 05:02:23;;;;;;;14.93;5.47;;;9.60;99.90;;;9.62;81.08;100747.66;5131238;27;20050;-64
2022/02/15 05:04:53;;;;;;;18.50;6.10;;;9.40;99.90;;;9.51;81.32;100725.72;5113735;28;20055;-64
2022/02/15 05:07:41;;;;;;;16.50;5.35;;;9.40;99.90;;;9.13;81.32;100672.13;5114320;28;20124;-64
2022/02/15 05:10:11;;;;;;;19.98;5.75;;;9.40;99.90;;;9.57;81.31;100752.09;5113842;28;20057;-63
2022/02/15 05:12:42;;;;;;;15.43;5.53;;;9.30;99.90;;;9.49;82.00;100753.88;5131400;27;20067;-64
2022/02/15 05:15:12;;;;;;;25.15;6.60;;;9.30;99.90;;;9.46;81.84;100753.91;5130955;27;20048;-65
2022/02/15 05:17:54;;;;;;;17.65;5.93;;;9.30;99.90;;;9.30;81.73;100738.06;5130719;27;20074;-67
2022/02/15 05:20:23;;;;;;;18.35;6.05;;;9.20;99.90;;;9.41;81.90;100757.38;5114724;28;20043;-65
2022/02/15 05:22:51;;;;;;;15.32;5.68;;;9.10;99.90;;;9.52;81.38;100763.56;5113657;28;20051;-66
2022/02/15 05:25:22;;;;;;;17.60;5.90;;;9.30;99.90;;;9.40;81.60;100768.84;5148023;27;20400;-66
2022/02/15 05:27:52;;;;;;;;;;;9.20;99.90;;;9.39;81.78;100757.41;5131307;27;20130;-66
2022/02/15 05:30:22;;;;;;;;;;;9.20;99.90;;;9.51;81.30;100774.97;5114086;28;19919;-67
2022/02/15 05:33:07;;;;;;;17.30;5.82;;;9.30;99.90;;;9.58;81.18;100779.38;5130778;27;19963;-67
2022/02/15 05:35:46;;;;;;;18.08;6.30;;;9.30;99.90;;;9.56;81.26;100779.38;5130333;27;20051;-66
2022/02/15 05:38:16;;;;;;;;;;;9.30;99.90;;;9.51;81.63;100781.16;5131435;27;20047;-65
2022/02/15 05:40:49;;;;;;;22.25;6.60;;;9.30;99.90;;;9.49;81.56;100777.63;5130291;27;19919;-66
2022/02/15 05:43:18;;;;;;;23.08;6.25;;;9.30;99.90;;;9.46;81.46;100779.41;5113107;28;20457;-66
2022/02/15 05:45:52;;;;;;;20.52;6.25;;;9.30;99.90;;;9.40;82.06;100782.94;5113275;28;20113;-67
2022/02/15 05:48:29;;;;;;;21.73;6.80;;;9.10;99.90;;;9.37;81.45;100780.28;5114844;28;20036;-66
2022/02/15 05:51:04;;;;;;;21.67;7.53;;;9.20;99.90;;;9.24;81.87;100791.72;5130231;27;20504;-66
2022/02/15 05:53:56;;;;;;;24.98;6.90;;;9.00;99.90;;;9.35;81.64;100791.75;5130553;27;20052;-66
2022/02/15 05:56:32;;;;;;;25.90;7.32;;;9.10;99.90;;;9.39;81.53;100791.72;5130411;27;20044;-65
2022/02/15 05:59:12;;;;;;;21.58;7.57;;;9.10;99.90;;;9.41;80.82;100783.78;5084782;28;20098;-66
2022/02/15 06:01:56;;;;;;;18.88;7.30;;;9.20;99.90;;;9.27;80.92;100781.16;5072392;28;20059;-66
2022/02/15 06:04:36;;;;;;;19.85;7.18;;;9.10;99.90;;;9.16;80.82;100775.00;5072456;28;20052;-65
2022/02/15 06:07:11;;;;;;;21.92;7.00;;;9.00;99.90;;;9.07;81.29;100788.22;5089289;28;20041;-67
2022/02/15 06:09:41;;;;;;;19.08;6.97;;;8.90;99.90;;;9.24;81.18;100788.22;5072240;28;20453;-66
2022/02/15 06:12:13;;;;;;;20.75;6.65;;;9.00;99.90;;;9.23;80.54;100795.25;5072321;28;20048;-65
2022/02/15 06:14:53;;;;;;;18.42;6.97;;;9.00;99.90;;;9.22;80.00;100795.25;5072048;28;20048;-66
2022/02/15 06:17:22;;;;;;;21.77;6.50;;;9.00;99.90;;;9.06;79.86;100783.81;5072150;28;20055;-67
2022/02/15 06:19:53;;;;;;;17.10;6.30;;;9.00;99.90;;;9.27;79.72;100807.56;5071944;28;20045;-67
2022/02/15 06:22:31;;;;;;;19.10;6.68;;;9.10;99.90;;;9.36;79.64;100811.97;5072078;28;20136;-66
2022/02/15 06:25:01;;;;;;;15.35;6.50;;;9.10;99.90;;;8.98;80.15;100757.44;5072014;28;20048;-67
2022/02/15 06:27:44;;;;;;;18.48;5.88;;;9.00;99.90;;;9.18;80.86;100812.84;5072456;28;20036;-66
2022/02/15 06:30:35;;;;;;;21.40;6.90;;;8.90;99.90;;;9.23;80.84;100789.09;5067151;28;20053;-65
2022/02/15 06:33:08;;;;;;;22.42;6.72;;;9.00;99.90;;;9.36;80.38;100782.94;5071953;28;20048;-65
2022/02/15 06:35:38;;;;;;;22.25;6.82;;;9.20;99.90;;;9.09;80.49;100775.91;5088992;28;20044;-65
2022/02/15 06:38:11;;;;;;;21.75;6.18;;;9.20;99.90;;;9.32;80.97;100818.13;5072821;28;20041;-65
2022/02/15 06:40:43;;;;;;;25.10;6.82;;;9.10;99.90;;;9.42;80.39;100818.13;5071776;28;20044;-65
2022/02/15 06:43:21;;;;;;;20.75;5.85;;;9.20;99.90;;;9.40;79.94;100814.59;5071555;28;20048;-65
2022/02/15 06:45:50;;;;;;;17.08;6.20;;;9.20;99.90;;;9.41;80.01;100819.00;5072173;28;20110;-65
2022/02/15 06:48:23;;;;;;;24.15;7.10;;;9.10;99.90;;;9.44;79.91;100824.28;5071747;28;20041;-65
2022/02/15 06:50:54;;;;;;;15.15;5.72;;;9.20;99.90;;;9.22;79.83;100826.91;5088506;28;20068;-65
2022/02/15 06:53:51;;;;;;;16.85;5.50;;;9.20;99.90;;;9.14;80.04;100779.41;5071424;28;20118;-65
2022/02/15 06:56:48;;;;;;;14.65;5.07;;;9.10;99.90;;;9.33;80.00;100833.94;5075516;28;20045;-65
2022/02/15 06:59:26;;;;;;;21.48;6.55;;;9.10;99.90;;;9.43;80.14;100835.72;5107854;28;20093;-65
2022/02/15 07:01:55;;;;;;;23.33;7.10;;;9.20;99.90;;;9.52;79.83;100848.03;5117683;28;20055;-66
2022/02/15 07:04:27;;;;;;;19.63;6.30;;;9.30;99.90;;;9.57;79.78;100855.06;5116401;28;20054;-65
2022/02/15 07:06:57;;;;;;;20.52;6.25;;;9.30;99.90;;;9.41;79.49;100828.66;5116380;28;20572;-65
2022/02/15 07:09:25;;;;;;;23.95;6.80;;;9.40;99.90;;;9.44;79.41;100841.88;5116452;28;20056;-66
2022/02/15 07:12:11;;;;;;;24.23;7.32;;;9.30;99.90;;;9.71;79.35;100862.97;5133434;27;20040;-65
2022/02/15 07:15:04;;;;;;;17.15;6.03;;;9.40;99.90;;;9.61;79.02;100854.19;5117006;28;20058;-65
2022/02/15 07:17:43;;;;;;;14.98;6.10;;;9.40;99.90;;;9.68;78.52;100869.13;5116113;28;20063;-65
2022/02/15 07:20:18;;;;;;;19.70;6.82;;;9.40;99.90;;;9.58;78.55;100877.94;5150792;27;20152;-65
2022/02/15 07:23:07;;;;;;;22.90;6.72;;;9.30;99.90;;;9.54;78.27;100876.19;5117063;28;20059;-66
2022/02/15 07:26:05;;;;;;;18.42;6.00;;;9.20;99.90;;;9.43;78.12;100841.00;5116976;28;20043;-66
2022/02/15 07:28:56;;;;;;;29.33;7.28;;;9.30;99.90;;;9.35;78.23;100884.97;5116759;28;20055;-65
2022/02/15 07:31:28;;;;;;;17.58;6.68;;;9.30;99.90;;;9.33;78.20;100881.47;5150223;27;20043;-65
2022/02/15 07:33:57;;;;;;;19.23;6.45;;;9.10;99.90;;;9.43;78.29;100890.25;5132927;27;20058;-65
2022/02/15 07:36:25;;;;;;;17.75;6.88;;;9.10;99.90;;;9.50;78.10;100895.56;5132873;27;20534;-66
2022/02/15 07:38:54;;;;;;;24.23;6.53;;;9.20;99.90;;;9.42;77.74;100892.03;5116719;28;20044;-65
2022/02/15 07:41:23;;;;;;;20.38;6.30;;;9.20;99.90;;;9.35;78.56;100887.63;5149815;27;20134;-66
2022/02/15 07:43:51;;;;;;;23.15;6.28;;;9.10;99.90;;;9.19;77.92;100845.41;5116635;28;20039;-66
2022/02/15 07:46:20;;;;;;;24.25;6.25;;;9.10;99.90;;;8.67;77.89;100750.38;5116623;28;20060;-66
2022/02/15 07:48:50;;;;;;;16.83;6.40;;;9.20;99.90;;;9.45;77.56;100876.19;5116461;28;20052;-68
2022/02/15 07:51:19;;;;;;;19.67;5.63;;;9.30;99.90;;;9.48;78.01;100902.63;5116351;28;20043;-67
2022/02/15 07:53:47;;;;;;;15.73;6.15;;;9.20;99.90;;;9.40;77.47;100882.34;5116514;28;20059;-66
2022/02/15 07:56:16;;;;;;;16.05;5.82;;;9.20;99.90;;;9.57;77.45;100901.72;5116923;28;20097;-68
2022/02/15 07:58:44;;;;;;;18.42;6.30;;;9.20;99.90;;;9.41;77.21;100892.00;5116573;28;20100;-67
2022/02/15 08:01:13;;;;;;;22.17;6.45;;;9.20;99.90;;;9.36;77.32;100906.97;5116282;28;20062;-68
2022/02/15 08:03:41;;;;;;;16.20;5.68;;;9.20;99.90;;;8.98;77.38;100815.47;5116569;28;20039;-69
2022/02/15 08:06:11;;;;;;;21.52;5.78;;;9.20;99.90;;;9.61;77.57;100914.94;5149196;27;20047;-67
2022/02/15 08:08:41;;;;;;;15.40;6.40;;;9.20;99.90;;;9.38;77.57;100890.28;5132495;27;20048;-68
2022/02/15 08:11:09;;;;;;;23.10;6.00;;;9.20;99.90;;;9.60;78.00;100910.50;5116332;28;20044;-69
2022/02/15 08:13:42;;;;;;;22.75;6.38;;;9.20;99.90;;;9.52;77.93;100904.38;5115022;28;20108;-68
2022/02/15 08:16:11;;;;;;;16.90;6.07;;;9.30;99.90;;;9.51;77.79;100902.59;5115986;28;20044;-67
2022/02/15 08:18:41;;;;;;;21.77;6.45;;;9.30;99.90;;;9.41;77.17;100868.25;5115868;28;20039;-67
2022/02/15 08:21:12;;;;;;;18.88;6.00;;;9.30;99.90;;;9.34;77.23;100877.06;5115950;28;20047;-69
2022/02/15 08:24:00;;;;;;;19.65;6.38;;;9.20;99.90;;;9.54;76.88;100922.84;5115952;28;20092;-67
2022/02/15 08:26:29;;;;;;;17.27;5.40;;;9.30;99.90;;;9.46;76.58;100925.50;5116006;28;20040;-69
2022/02/15 08:28:57;;;;;;;23.17;5.95;;;9.20;99.90;;;9.43;76.79;100917.53;5115883;28;20063;-67
2022/02/15 08:31:26;;;;;;;21.45;5.95;;;9.10;99.90;;;9.36;77.03;100907.88;5115927;28;20047;-66
2022/02/15 08:33:54;;;;;;;23.75;6.35;;;9.20;99.90;;;9.47;76.45;100916.66;5115730;28;20119;-67
2022/02/15 08:36:24;;;;;;;20.00;5.95;;;9.20;99.90;;;9.76;76.64;100933.41;5115548;28;20439;-66
2022/02/15 08:38:53;;;;;;;20.23;6.07;;;9.40;99.90;;;9.97;75.63;100917.53;5115487;28;20047;-67
2022/02/15 08:41:22;;;;;;;15.75;5.50;;;9.70;99.90;;;10.24;74.56;100923.72;5115608;28;20040;-67
2022/02/15 08:43:50;;;;;;;17.08;5.97;;;9.90;99.90;;;10.34;73.67;100881.38;5115945;28;20036;-69
2022/02/15 08:46:19;;;;;;;20.83;5.80;;;10.20;99.90;;;10.75;72.18;100945.56;5115547;28;20036;-69
2022/02/15 08:48:48;;;;;;;20.83;5.78;;;10.50;99.90;;;10.54;71.47;100817.81;5131571;27;20047;-69
2022/02/15 08:51:19;;;;;;;16.35;6.32;;;10.80;99.90;;;11.52;70.68;100916.00;5115457;28;20118;-70
2022/02/15 08:53:50;;;;;;;24.08;7.05;;;11.10;99.90;;;11.49;70.03;100929.28;5115246;28;20435;-70
2022/02/15 08:56:21;;;;;;;23.25;6.60;;;11.20;99.90;;;11.57;69.67;100918.63;5115511;28;20096;-69
2022/02/15 08:58:50;;;;;;;19.17;6.00;;;11.30;99.90;;;11.33;69.11;100856.13;5115674;28;20427;-69
2022/02/15 09:01:19;;;;;;;19.77;5.45;;;11.50;99.90;;;11.83;68.54;100923.75;5115070;28;20044;-69
2022/02/15 09:03:47;;;;;;;21.05;5.95;;;11.60;99.90;;;12.03;68.56;100905.88;5115034;28;20503;-71
2022/02/15 09:06:16;;;;;;;18.65;6.00;;;11.80;99.90;;;12.19;66.85;100913.69;5115325;28;20031;-70
2022/02/15 09:08:48;;;;;;;24.02;6.53;;;12.00;99.90;;;12.25;66.27;100912.72;5115148;28;20052;-69
2022/02/15 09:11:19;;;;;;;15.45;5.10;;;12.00;99.90;;;12.15;66.31;100922.56;5114885;28;20561;-70
2022/02/15 09:13:48;;;;;;;14.30;5.43;;;11.90;99.90;;;12.31;66.56;100932.09;5114938;27;20032;-69
2022/02/15 09:16:16;;;;;;;20.70;6.00;;;11.90;99.90;;;12.02;65.52;100853.75;5114754;28;20119;-68
2022/02/15 09:18:47;;;;;;;19.98;5.68;;;12.10;99.90;;;11.97;65.08;100851.16;5114490;28;20507;-67
2022/02/15 09:21:17;;;;;;;16.50;5.90;;;12.30;99.90;;;12.68;64.93;100920.16;5114599;28;20047;-67
2022/02/15 09:23:49;;;;;;;19.13;6.15;;;12.40;99.90;;;12.84;64.72;100918.19;5130999;27;20567;-68
2022/02/15 09:26:18;;;;;;;18.17;5.47;;;12.50;99.90;;;12.70;63.67;100898.91;5115269;28;20043;-68
2022/02/15 09:28:48;;;;;;;17.05;5.60;;;12.50;99.90;;;13.15;63.96;100921.34;5114905;28;20042;-68
2022/02/15 09:31:17;;;;;;;20.83;5.97;;;12.70;99.90;;;13.48;63.53;100927.06;5114452;28;20118;-69
2022/02/15 09:33:46;;;;;;;17.38;6.20;;;13.10;99.90;;;13.33;62.14;100881.25;5114206;28;20089;-70
2022/02/15 09:36:23;;;;;;;19.52;5.55;;;13.30;99.90;;;13.73;60.90;100926.66;5114635;28;20039;-71
2022/02/15 09:38:55;;;;;;;22.20;5.72;;;13.40;99.90;;;13.47;60.63;100904.03;5130665;27;20067;-68
2022/02/15 09:41:23;;;;;;;16.83;5.47;;;13.40;99.90;;;13.44;61.07;100920.03;5114877;28;20047;-68
2022/02/15 09:43:52;;;;;;;100.25;52.80;;;13.20;99.90;;;13.55;60.61;100939.34;5114463;28;20051;-69
2022/02/15 09:46:24;;;;;;;22.25;9.27;;;13.20;99.90;;;13.75;61.06;100943.47;5114392;28;20101;-68
2022/02/15 09:48:55;;;;;;;121.40;64.03;;;13.40;99.90;;;13.82;60.10;100945.13;5114799;28;20043;-65
2022/02/15 09:51:25;;;;;;;;;;;13.50;99.90;;;13.39;58.93;100868.72;5114644;28;20097;-68
2022/02/15 09:53:54;;;;;;;21.73;5.20;;;13.50;99.90;;;13.56;59.57;100927.81;5114012;28;20019;-68
2022/02/15 09:56:23;;;;;;;13.48;6.47;;;13.30;99.90;;;13.40;60.12;100891.75;5114196;28;20039;-68
2022/02/15 09:58:52;;;;;;;13.93;4.97;;;13.30;99.90;;;13.51;59.26;100908.41;5113625;28;20051;-68
2022/02/15 10:01:20;;;;;;;15.52;5.22;;;13.20;99.90;;;13.36;59.86;100903.31;5113915;28;20035;-68
2022/02/15 10:03:56;;;;;;;14.15;4.75;;;13.20;99.90;;;13.42;59.61;100900.59;5130233;27;20047;-68
2022/02/15 10:06:29;;;;;;;12.88;5.38;;;13.10;99.90;;;13.39;59.67;100907.72;5129991;27;20047;-69
2022/02/15 10:09:01;;;;;;;16.50;5.45;;;13.10;99.90;;;13.53;60.69;100903.94;5114208;28;20036;-66
2022/02/15 10:11:36;;;;;;;10.85;4.95;;;13.10;99.90;;;13.47;60.02;100888.09;5113768;28;20050;-64
2022/02/15 10:14:06;;;;;;;16.65;5.45;;;13.20;99.90;;;13.35;59.48;100890.97;5113734;28;20044;-69
2022/02/15 10:16:46;;;;;;;14.55;4.57;;;13.10;99.90;;;13.14;60.12;100893.91;5114067;28;20036;-69
2022/02/15 10:19:23;;;;;;;16.10;4.32;;;12.90;99.90;;;13.04;60.56;100894.06;5113916;28;20043;-69
2022/02/15 10:21:55;;;;;;;15.27;5.28;;;12.80;99.90;;;12.83;60.77;100874.00;5113647;28;20123;-70
2022/02/15 10:24:28;;;;;;;16.95;4.80;;;12.70;99.90;;;12.45;61.90;100898.34;5113698;28;20427;-68
2022/02/15 10:26:59;;;;;;;12.98;4.80;;;12.30;99.90;;;12.14;63.34;100888.97;5113979;28;20070;-68
2022/02/15 10:29:29;;;;;;;;;;;11.90;99.90;;;12.08;64.24;100882.88;5113095;28;20039;-70
2022/02/15 10:31:59;;;;;;;14.77;5.45;;;11.80;99.90;;;12.03;64.74;100889.97;5113837;28;19966;-63
2022/02/15 10:34:29;;;;;;;16.33;5.47;;;11.70;99.90;;;11.80;64.70;100890.19;5113657;27;20036;-66
2022/02/15 10:37:03;;;;;;;13.75;5.03;;;11.60;99.90;;;11.98;63.96;100899.75;5113506;27;20423;-66
2022/02/15 10:39:39;;;;;;;15.60;5.53;;;11.70;99.90;;;11.92;64.24;100891.84;5113479;28;20059;-67